ANE weather

Anoka County-Blaine (Janes Field) Airport
Minneapolis, Minnesota, United States

Public forecast

Using degrees Fahrenheit for public forecast. Weather courtesy of forecast.io.

METAR (pilot weather report)

Retrieved 2019/08/21 04:36 UTC (21 minutes ago):

KANE 210436Z AUTO 36006KT 10SM 22/17 A3002 RMK AO2

TAF (pilot weather forecast)

Forecast is more than 12 hours old.

Retrieved 2018/02/05 00:21 UTC (2 years ago):

TAF KANE 052320Z 0600/0624 28008KT P6SM FEW025 FM060300 30005KT P6SM FEW250 FM061600 21005KT P6SM SCT250 AMD NOT SKED